sensor_id;sensor_type;location;lat;lon;timestamp;pressure;altitude;pressure_sealevel;temperature;humidity
46506;BME280;32220;49.808;9.968;2023-04-03T00:01:04;99880.75;;;2.77;68.35
46506;BME280;32220;49.808;9.968;2023-04-03T00:03:32;99878.16;;;2.76;68.28
46506;BME280;32220;49.808;9.968;2023-04-03T00:06:01;99886.88;;;2.75;68.61
46506;BME280;32220;49.808;9.968;2023-04-03T00:08:30;99857.38;;;2.67;69.24
46506;BME280;32220;49.808;9.968;2023-04-03T00:10:58;99876.47;;;2.72;68.68
46506;BME280;32220;49.808;9.968;2023-04-03T00:13:26;99889.50;;;2.75;68.55
46506;BME280;32220;49.808;9.968;2023-04-03T00:15:54;99889.50;;;2.75;68.60
46506;BME280;32220;49.808;9.968;2023-04-03T00:18:22;99895.59;;;2.75;68.42
46506;BME280;32220;49.808;9.968;2023-04-03T00:20:49;99896.44;;;2.77;68.25
46506;BME280;32220;49.808;9.968;2023-04-03T00:23:17;99896.41;;;2.79;68.30
46506;BME280;32220;49.808;9.968;2023-04-03T00:25:46;99897.28;;;2.81;68.65
46506;BME280;32220;49.808;9.968;2023-04-03T00:28:14;99881.56;;;2.81;68.62
46506;BME280;32220;49.808;9.968;2023-04-03T00:30:42;99885.03;;;2.83;68.51
46506;BME280;32220;49.808;9.968;2023-04-03T00:33:11;99884.16;;;2.84;69.05
46506;BME280;32220;49.808;9.968;2023-04-03T00:35:40;99882.34;;;2.86;68.80
46506;BME280;32220;49.808;9.968;2023-04-03T00:38:09;99885.78;;;2.89;68.83
46506;BME280;32220;49.808;9.968;2023-04-03T00:40:38;99872.66;;;2.94;69.31
46506;BME280;32220;49.808;9.968;2023-04-03T00:43:12;99879.53;;;3.00;69.30
46506;BME280;32220;49.808;9.968;2023-04-03T00:45:41;99876.84;;;3.04;69.30
46506;BME280;32220;49.808;9.968;2023-04-03T00:48:14;99868.88;;;3.10;69.57
46506;BME280;32220;49.808;9.968;2023-04-03T00:50:44;99867.13;;;3.12;69.63
46506;BME280;32220;49.808;9.968;2023-04-03T00:53:14;99866.16;;;3.18;69.55
46506;BME280;32220;49.808;9.968;2023-04-03T00:55:44;99872.09;;;3.28;69.89
46506;BME280;32220;49.808;9.968;2023-04-03T00:58:15;99872.03;;;3.32;69.40
46506;BME280;32220;49.808;9.968;2023-04-03T01:00:48;99872.06;;;3.31;69.30
46506;BME280;32220;49.808;9.968;2023-04-03T01:03:22;99871.16;;;3.33;69.37
46506;BME280;32220;49.808;9.968;2023-04-03T01:05:50;99870.28;;;3.33;69.55
46506;BME280;32220;49.808;9.968;2023-04-03T01:08:18;99865.84;;;3.35;70.41
46506;BME280;32220;49.808;9.968;2023-04-03T01:10:46;99852.00;;;3.30;71.01
46506;BME280;32220;49.808;9.968;2023-04-03T01:13:21;99877.09;;;3.43;69.98
46506;BME280;32220;49.808;9.968;2023-04-03T01:15:50;99865.63;;;3.48;70.79
46506;BME280;32220;49.808;9.968;2023-04-03T01:18:19;99865.53;;;3.53;70.72
46506;BME280;32220;49.808;9.968;2023-04-03T01:21:19;99872.44;;;3.58;71.00
46506;BME280;32220;49.808;9.968;2023-04-03T01:24:20;99872.31;;;3.65;70.68
46506;BME280;32220;49.808;9.968;2023-04-03T01:26:50;99879.22;;;3.70;70.97
46506;BME280;32220;49.808;9.968;2023-04-03T01:29:19;99868.59;;;3.76;70.45
46506;BME280;32220;49.808;9.968;2023-04-03T01:31:53;99853.03;;;3.70;71.02
46506;BME280;32220;49.808;9.968;2023-04-03T01:34:21;99867.59;;;3.83;70.78
46506;BME280;32220;49.808;9.968;2023-04-03T01:36:50;99877.94;;;3.91;71.00
46506;BME280;32220;49.808;9.968;2023-04-03T01:39:19;99858.84;;;3.84;70.72
46506;BME280;32220;49.808;9.968;2023-04-03T01:41:48;99882.97;;;4.02;70.53
46506;BME280;32220;49.808;9.968;2023-04-03T01:44:28;99882.00;;;4.07;70.45
46506;BME280;32220;49.808;9.968;2023-04-03T01:46:58;99810.25;;;3.70;69.98
46506;BME280;32220;49.808;9.968;2023-04-03T01:49:27;99880.94;;;4.16;69.90
46506;BME280;32220;49.808;9.968;2023-04-03T01:51:55;99884.41;;;4.18;69.86
46506;BME280;32220;49.808;9.968;2023-04-03T01:54:23;99873.03;;;4.19;69.95
46506;BME280;32220;49.808;9.968;2023-04-03T01:56:51;99877.28;;;4.23;69.68
46506;BME280;32220;49.808;9.968;2023-04-03T01:59:20;99874.59;;;4.26;69.56
46506;BME280;32220;49.808;9.968;2023-04-03T02:01:48;99874.63;;;4.24;69.68
46506;BME280;32220;49.808;9.968;2023-04-03T02:04:17;99885.88;;;4.31;69.48
46506;BME280;32220;49.808;9.968;2023-04-03T02:06:45;99879.75;;;4.32;69.76
46506;BME280;32220;49.808;9.968;2023-04-03T02:09:13;99875.31;;;4.34;69.81
46506;BME280;32220;49.808;9.968;2023-04-03T02:11:41;99881.38;;;4.36;69.68
46506;BME280;32220;49.808;9.968;2023-04-03T02:14:09;99876.09;;;4.38;69.50
46506;BME280;32220;49.808;9.968;2023-04-03T02:16:38;99877.81;;;4.40;69.72
46506;BME280;32220;49.808;9.968;2023-04-03T02:19:06;99879.50;;;4.43;69.64
46506;BME280;32220;49.808;9.968;2023-04-03T02:21:35;99864.00;;;4.32;69.38
46506;BME280;32220;49.808;9.968;2023-04-03T02:24:03;99882.09;;;4.44;69.69
46506;BME280;32220;49.808;9.968;2023-04-03T02:26:31;99876.78;;;4.47;69.64
46506;BME280;32220;49.808;9.968;2023-04-03T02:28:59;99883.72;;;4.50;69.85
46506;BME280;32220;49.808;9.968;2023-04-03T02:31:28;99881.06;;;4.51;69.95
46506;BME280;32220;49.808;9.968;2023-04-03T02:33:56;99888.88;;;4.54;70.07
46506;BME280;32220;49.808;9.968;2023-04-03T02:36:24;99882.72;;;4.57;70.17
46506;BME280;32220;49.808;9.968;2023-04-03T02:38:57;99861.03;;;4.47;70.44
46506;BME280;32220;49.808;9.968;2023-04-03T02:41:25;99880.03;;;4.58;70.38
46506;BME280;32220;49.808;9.968;2023-04-03T02:44:00;99881.69;;;4.62;70.23
46506;BME280;32220;49.808;9.968;2023-04-03T02:46:28;99875.56;;;4.63;70.31
46506;BME280;32220;49.808;9.968;2023-04-03T02:48:56;99855.66;;;4.53;70.46
46506;BME280;32220;49.808;9.968;2023-04-03T02:51:24;99883.31;;;4.69;70.75
46506;BME280;32220;49.808;9.968;2023-04-03T02:53:53;99871.19;;;4.62;70.57
46506;BME280;32220;49.808;9.968;2023-04-03T02:56:26;99842.59;;;4.52;71.01
46506;BME280;32220;49.808;9.968;2023-04-03T02:58:54;99875.25;;;4.77;71.19
46506;BME280;32220;49.808;9.968;2023-04-03T03:01:23;99859.72;;;4.68;71.04
46506;BME280;32220;49.808;9.968;2023-04-03T03:03:50;99873.44;;;4.79;71.57
46506;BME280;32220;49.808;9.968;2023-04-03T03:06:18;99880.41;;;4.82;71.13
46506;BME280;32220;49.808;9.968;2023-04-03T03:08:46;99878.56;;;4.84;71.60
46506;BME280;32220;49.808;9.968;2023-04-03T03:11:14;99875.88;;;4.87;71.28
46506;BME280;32220;49.808;9.968;2023-04-03T03:13:43;99881.03;;;4.91;71.32
46506;BME280;32220;49.808;9.968;2023-04-03T03:16:11;99879.19;;;4.95;71.30
46506;BME280;32220;49.808;9.968;2023-04-03T03:18:39;99877.50;;;4.94;71.83
46506;BME280;32220;49.808;9.968;2023-04-03T03:21:09;99859.28;;;4.86;71.72
46506;BME280;32220;49.808;9.968;2023-04-03T03:23:37;99878.22;;;4.99;72.04
46506;BME280;32220;49.808;9.968;2023-04-03T03:26:08;99877.31;;;5.00;72.07
46506;BME280;32220;49.808;9.968;2023-04-03T03:28:37;99855.66;;;4.92;71.66
46506;BME280;32220;49.808;9.968;2023-04-03T03:31:08;99870.31;;;5.00;71.90
46506;BME280;32220;49.808;9.968;2023-04-03T03:33:38;99878.13;;;5.03;72.22
46506;BME280;32220;49.808;9.968;2023-04-03T03:36:06;99858.41;;;4.86;72.64
46506;BME280;32220;49.808;9.968;2023-04-03T03:38:36;99870.41;;;4.96;73.24
46506;BME280;32220;49.808;9.968;2023-04-03T03:41:04;99863.41;;;4.96;72.86
46506;BME280;32220;49.808;9.968;2023-04-03T03:43:34;99871.31;;;4.95;73.12
46506;BME280;32220;49.808;9.968;2023-04-03T03:46:03;99864.41;;;4.92;73.16
46506;BME280;32220;49.808;9.968;2023-04-03T03:48:33;99873.84;;;4.99;73.15
46506;BME280;32220;49.808;9.968;2023-04-03T03:51:01;99870.47;;;4.94;72.85
46506;BME280;32220;49.808;9.968;2023-04-03T03:53:33;99872.44;;;4.85;72.27
46506;BME280;32220;49.808;9.968;2023-04-03T03:56:06;99867.97;;;4.88;72.31
46506;BME280;32220;49.808;9.968;2023-04-03T03:58:36;99874.13;;;4.87;72.08
46506;BME280;32220;49.808;9.968;2023-04-03T04:01:05;99877.94;;;4.74;72.19
46506;BME280;32220;49.808;9.968;2023-04-03T04:03:39;99876.03;;;4.81;71.57
46506;BME280;32220;49.808;9.968;2023-04-03T04:06:09;99873.41;;;4.81;71.92
46506;BME280;32220;49.808;9.968;2023-04-03T04:08:37;99872.59;;;4.79;71.74
46506;BME280;32220;49.808;9.968;2023-04-03T04:11:07;99871.88;;;4.70;71.85
46506;BME280;32220;49.808;9.968;2023-04-03T04:13:36;99877.09;;;4.72;71.99
46506;BME280;32220;49.808;9.968;2023-04-03T04:16:05;99886.81;;;4.68;72.03
46506;BME280;32220;49.808;9.968;2023-04-03T04:18:34;99878.31;;;4.57;72.03
46506;BME280;32220;49.808;9.968;2023-04-03T04:21:03;99890.72;;;4.49;72.16
46506;BME280;32220;49.808;9.968;2023-04-03T04:23:31;99878.56;;;4.45;72.24
46506;BME280;32220;49.808;9.968;2023-04-03T04:26:00;99854.47;;;4.28;71.70
46506;BME280;32220;49.808;9.968;2023-04-03T04:28:31;99874.28;;;4.41;71.95
46506;BME280;32220;49.808;9.968;2023-04-03T04:31:01;99876.97;;;4.38;71.41
46506;BME280;32220;49.808;9.968;2023-04-03T04:33:29;99884.25;;;4.24;71.58
46506;BME280;32220;49.808;9.968;2023-04-03T04:35:59;99887.72;;;4.26;71.67
46506;BME280;32220;49.808;9.968;2023-04-03T04:38:29;99875.69;;;4.16;71.13
46506;BME280;32220;49.808;9.968;2023-04-03T04:40:57;99895.59;;;4.24;71.22
46506;BME280;32220;49.808;9.968;2023-04-03T04:43:25;99881.84;;;4.15;70.96
46506;BME280;32220;49.808;9.968;2023-04-03T04:46:02;99892.13;;;4.24;71.03
46506;BME280;32220;49.808;9.968;2023-04-03T04:48:33;99900.03;;;4.21;71.14
46506;BME280;32220;49.808;9.968;2023-04-03T04:51:01;99886.28;;;4.10;70.96
46506;BME280;32220;49.808;9.968;2023-04-03T04:53:31;99908.00;;;4.18;71.21
46506;BME280;32220;49.808;9.968;2023-04-03T04:55:59;99911.59;;;4.12;71.19
46506;BME280;32220;49.808;9.968;2023-04-03T04:58:27;99913.44;;;4.07;71.17
46506;BME280;32220;49.808;9.968;2023-04-03T05:00:59;99897.09;;;3.94;71.00
46506;BME280;32220;49.808;9.968;2023-04-03T05:03:28;99907.63;;;3.91;70.89
46506;BME280;32220;49.808;9.968;2023-04-03T05:05:55;99899.19;;;3.74;70.90
46506;BME280;32220;49.808;9.968;2023-04-03T05:08:23;99914.81;;;3.80;70.92
46506;BME280;32220;49.808;9.968;2023-04-03T05:10:53;99915.09;;;3.65;71.01
46506;BME280;32220;49.808;9.968;2023-04-03T05:13:21;99917.00;;;3.57;70.99
46506;BME280;32220;49.808;9.968;2023-04-03T05:15:49;99910.13;;;3.50;70.99
46506;BME280;32220;49.808;9.968;2023-04-03T05:18:17;99924.09;;;3.49;71.50
46506;BME280;32220;49.808;9.968;2023-04-03T05:20:48;99924.22;;;3.43;71.32
46506;BME280;32220;49.808;9.968;2023-04-03T05:23:17;99903.50;;;3.28;71.82
46506;BME280;32220;49.808;9.968;2023-04-03T05:25:46;99927.13;;;3.24;72.03
46506;BME280;32220;49.808;9.968;2023-04-03T05:28:17;99926.28;;;3.22;71.97
46506;BME280;32220;49.808;9.968;2023-04-03T05:30:45;99927.13;;;3.23;72.01
46506;BME280;32220;49.808;9.968;2023-04-03T05:33:13;99928.97;;;3.19;72.37
46506;BME280;32220;49.808;9.968;2023-04-03T05:35:46;99919.47;;;3.12;72.48
46506;BME280;32220;49.808;9.968;2023-04-03T05:38:18;99929.88;;;3.15;72.54
46506;BME280;32220;49.808;9.968;2023-04-03T05:40:47;99932.47;;;3.17;72.29
46506;BME280;32220;49.808;9.968;2023-04-03T05:43:15;99930.72;;;3.19;72.67
46506;BME280;32220;49.808;9.968;2023-04-03T05:45:47;99942.94;;;3.17;72.43
46506;BME280;32220;49.808;9.968;2023-04-03T05:48:15;99918.69;;;3.06;73.02
46506;BME280;32220;49.808;9.968;2023-04-03T05:50:43;99941.19;;;3.19;72.56
46506;BME280;32220;49.808;9.968;2023-04-03T05:53:21;99941.22;;;3.16;73.40
46506;BME280;32220;49.808;9.968;2023-04-03T05:55:49;99946.34;;;3.22;72.90
46506;BME280;32220;49.808;9.968;2023-04-03T05:58:17;99947.16;;;3.25;72.97
46506;BME280;32220;49.808;9.968;2023-04-03T06:00:48;99954.06;;;3.31;73.04
46506;BME280;32220;49.808;9.968;2023-04-03T06:03:16;99945.31;;;3.34;72.86
46506;BME280;32220;49.808;9.968;2023-04-03T06:05:44;99943.44;;;3.42;72.58
46506;BME280;32220;49.808;9.968;2023-04-03T06:08:12;99943.38;;;3.45;72.36
46506;BME280;32220;49.808;9.968;2023-04-03T06:10:40;99951.94;;;3.56;72.08
46506;BME280;32220;49.808;9.968;2023-04-03T06:13:08;99954.56;;;3.54;72.27
46506;BME280;32220;49.808;9.968;2023-04-03T06:15:36;99951.78;;;3.65;71.87
46506;BME280;32220;49.808;9.968;2023-04-03T06:18:06;99957.00;;;3.65;71.53
46506;BME280;32220;49.808;9.968;2023-04-03T06:20:34;99957.91;;;3.63;71.01
46506;BME280;32220;49.808;9.968;2023-04-03T06:23:02;99948.50;;;3.52;70.58
46506;BME280;32220;49.808;9.968;2023-04-03T06:25:30;99970.78;;;3.76;70.43
46506;BME280;32220;49.808;9.968;2023-04-03T06:27:59;99974.19;;;3.81;70.00
46506;BME280;32220;49.808;9.968;2023-04-03T06:30:27;99967.94;;;3.88;69.93
46506;BME280;32220;49.808;9.968;2023-04-03T06:32:55;99966.34;;;3.81;69.45
46506;BME280;32220;49.808;9.968;2023-04-03T06:35:24;99985.16;;;4.03;69.63
46506;BME280;32220;49.808;9.968;2023-04-03T06:37:54;99994.38;;;4.24;68.87
46506;BME280;32220;49.808;9.968;2023-04-03T06:40:23;99978.56;;;4.30;68.35
46506;BME280;32220;49.808;9.968;2023-04-03T06:42:52;100001.06;;;4.40;67.43
46506;BME280;32220;49.808;9.968;2023-04-03T06:45:20;100002.44;;;4.59;67.36
46506;BME280;32220;49.808;9.968;2023-04-03T06:47:48;99999.66;;;4.68;67.57
46506;BME280;32220;49.808;9.968;2023-04-03T06:50:16;100017.63;;;4.87;66.85
46506;BME280;32220;49.808;9.968;2023-04-03T06:52:45;100016.41;;;5.03;66.23
46506;BME280;32220;49.808;9.968;2023-04-03T06:55:13;100016.16;;;5.14;65.97
46506;BME280;32220;49.808;9.968;2023-04-03T06:57:41;100022.00;;;5.26;65.39
46506;BME280;32220;49.808;9.968;2023-04-03T07:00:10;100026.41;;;5.63;64.08
46506;BME280;32220;49.808;9.968;2023-04-03T07:02:38;100041.66;;;5.84;63.10
46506;BME280;32220;49.808;9.968;2023-04-03T07:05:06;100047.28;;;6.06;62.12
46506;BME280;32220;49.808;9.968;2023-04-03T07:07:35;100050.97;;;6.33;61.31
46506;BME280;32220;49.808;9.968;2023-04-03T07:10:07;100063.41;;;6.60;60.70
46506;BME280;32220;49.808;9.968;2023-04-03T07:12:35;100068.47;;;6.99;60.15
46506;BME280;32220;49.808;9.968;2023-04-03T07:15:04;100072.03;;;7.55;58.52
46506;BME280;32220;49.808;9.968;2023-04-03T07:17:33;100057.28;;;8.04;57.06
46506;BME280;32220;49.808;9.968;2023-04-03T07:20:02;100092.44;;;8.83;54.35
46506;BME280;32220;49.808;9.968;2023-04-03T07:22:31;100110.44;;;9.67;52.50
46506;BME280;32220;49.808;9.968;2023-04-03T07:24:59;100133.22;;;10.15;48.77
46506;BME280;32220;49.808;9.968;2023-04-03T07:27:28;100104.47;;;11.10;49.93
46506;BME280;32220;49.808;9.968;2023-04-03T07:29:56;100143.88;;;11.18;46.88
46506;BME280;32220;49.808;9.968;2023-04-03T07:32:24;100125.44;;;11.35;48.88
46506;BME280;32220;49.808;9.968;2023-04-03T07:34:54;100134.22;;;11.16;47.22
46506;BME280;32220;49.808;9.968;2023-04-03T07:37:21;100103.00;;;11.03;46.50
46506;BME280;32220;49.808;9.968;2023-04-03T07:39:49;100149.81;;;11.43;45.61
46506;BME280;32220;49.808;9.968;2023-04-03T07:42:17;100140.72;;;11.67;47.15
46506;BME280;32220;49.808;9.968;2023-04-03T07:44:46;100157.72;;;11.83;45.73
46506;BME280;32220;49.808;9.968;2023-04-03T07:47:14;100157.44;;;11.69;44.67
46506;BME280;32220;49.808;9.968;2023-04-03T07:49:43;100151.38;;;12.05;45.39
46506;BME280;32220;49.808;9.968;2023-04-03T07:52:11;100162.81;;;13.12;43.28
46506;BME280;32220;49.808;9.968;2023-04-03T07:54:39;100192.22;;;15.30;39.43
46506;BME280;32220;49.808;9.968;2023-04-03T07:57:07;100224.81;;;17.42;34.61
46506;BME280;32220;49.808;9.968;2023-04-03T07:59:34;100205.75;;;19.06;32.69
46506;BME280;32220;49.808;9.968;2023-04-03T08:02:05;100229.19;;;19.96;30.97
46506;BME280;32220;49.808;9.968;2023-04-03T08:04:33;100229.16;;;20.18;30.75
46506;BME280;32220;49.808;9.968;2023-04-03T08:07:01;100238.22;;;20.17;29.07
46506;BME280;32220;49.808;9.968;2023-04-03T08:09:28;100233.44;;;20.97;27.88
46506;BME280;32220;49.808;9.968;2023-04-03T08:11:57;100211.69;;;21.93;29.15
46506;BME280;32220;49.808;9.968;2023-04-03T08:14:25;100222.72;;;21.39;27.84
46506;BME280;32220;49.808;9.968;2023-04-03T08:16:52;100192.38;;;20.84;29.24
46506;BME280;32220;49.808;9.968;2023-04-03T08:19:22;100214.50;;;20.22;29.92
46506;BME280;32220;49.808;9.968;2023-04-03T08:21:50;100199.69;;;19.04;29.03
46506;BME280;32220;49.808;9.968;2023-04-03T08:24:19;100219.66;;;18.52;31.22
46506;BME280;32220;49.808;9.968;2023-04-03T08:26:47;100206.38;;;18.01;31.38
46506;BME280;32220;49.808;9.968;2023-04-03T08:29:14;100201.44;;;17.95;31.56
46506;BME280;32220;49.808;9.968;2023-04-03T08:31:42;100202.94;;;18.72;31.21
46506;BME280;32220;49.808;9.968;2023-04-03T08:34:10;100214.75;;;19.97;30.59
46506;BME280;32220;49.808;9.968;2023-04-03T08:36:40;100224.72;;;21.37;28.29
46506;BME280;32220;49.808;9.968;2023-04-03T08:39:08;100237.00;;;21.71;27.26
46506;BME280;32220;49.808;9.968;2023-04-03T08:41:38;100236.91;;;21.82;26.51
46506;BME280;32220;49.808;9.968;2023-04-03T08:44:15;100223.88;;;21.88;25.75
46506;BME280;32220;49.808;9.968;2023-04-03T08:46:53;100240.25;;;22.26;26.01
46506;BME280;32220;49.808;9.968;2023-04-03T08:49:28;100246.56;;;23.73;24.99
46506;BME280;32220;49.808;9.968;2023-04-03T08:52:04;100243.84;;;24.92;23.51
46506;BME280;32220;49.808;9.968;2023-04-03T08:54:37;100244.81;;;24.28;23.79
46506;BME280;32220;49.808;9.968;2023-04-03T08:57:10;100259.78;;;24.59;22.84
46506;BME280;32220;49.808;9.968;2023-04-03T08:59:41;100257.66;;;25.52;21.69
46506;BME280;32220;49.808;9.968;2023-04-03T09:02:23;100260.06;;;25.37;21.62
46506;BME280;32220;49.808;9.968;2023-04-03T09:04:55;100265.34;;;26.34;21.15
46506;BME280;32220;49.808;9.968;2023-04-03T09:07:33;100274.50;;;27.98;19.26
46506;BME280;32220;49.808;9.968;2023-04-03T09:10:04;100232.38;;;28.64;18.25
46506;BME280;32220;49.808;9.968;2023-04-03T09:12:37;100257.31;;;28.92;18.34
46506;BME280;32220;49.808;9.968;2023-04-03T09:15:11;100282.09;;;29.59;17.88
46506;BME280;32220;49.808;9.968;2023-04-03T09:17:50;100273.78;;;30.93;17.20
46506;BME280;32220;49.808;9.968;2023-04-03T09:20:25;100275.56;;;31.00;17.25
46506;BME280;32220;49.808;9.968;2023-04-03T09:22:57;100278.75;;;30.39;16.54
46506;BME280;32220;49.808;9.968;2023-04-03T09:25:27;100270.34;;;30.69;16.96
46506;BME280;32220;49.808;9.968;2023-04-03T09:27:56;100275.81;;;30.69;17.13
46506;BME280;32220;49.808;9.968;2023-04-03T09:30:25;100243.72;;;29.07;18.26
46506;BME280;32220;49.808;9.968;2023-04-03T09:32:56;100243.47;;;28.15;19.46
46506;BME280;32220;49.808;9.968;2023-04-03T09:35:28;100243.19;;;28.88;19.59
46506;BME280;32220;49.808;9.968;2023-04-03T09:38:00;100249.88;;;29.92;17.44
46506;BME280;32220;49.808;9.968;2023-04-03T09:40:39;100255.72;;;30.18;17.77
46506;BME280;32220;49.808;9.968;2023-04-03T09:43:31;100251.16;;;28.59;17.22
46506;BME280;32220;49.808;9.968;2023-04-03T09:46:20;100237.72;;;28.02;18.50
46506;BME280;32220;49.808;9.968;2023-04-03T09:48:52;100223.94;;;26.32;20.21
46506;BME280;32220;49.808;9.968;2023-04-03T09:51:25;100236.44;;;25.29;19.98
46506;BME280;32220;49.808;9.968;2023-04-03T09:53:56;100244.03;;;24.45;19.96
46506;BME280;32220;49.808;9.968;2023-04-03T09:56:25;100231.34;;;22.85;21.72
46506;BME280;32220;49.808;9.968;2023-04-03T09:59:07;100216.06;;;22.15;23.30
46506;BME280;32220;49.808;9.968;2023-04-03T10:01:37;100219.69;;;22.94;22.66
46506;BME280;32220;49.808;9.968;2023-04-03T10:04:09;100201.16;;;22.70;21.67
46506;BME280;32220;49.808;9.968;2023-04-03T10:06:39;100220.22;;;22.29;21.48
46506;BME280;32220;49.808;9.968;2023-04-03T10:09:19;100216.50;;;22.10;22.69
46506;BME280;32220;49.808;9.968;2023-04-03T10:12:06;100217.66;;;21.66;21.95
46506;BME280;32220;49.808;9.968;2023-04-03T10:14:37;100204.31;;;21.95;22.54
46506;BME280;32220;49.808;9.968;2023-04-03T10:17:15;100198.84;;;22.06;23.53
46506;BME280;32220;49.808;9.968;2023-04-03T10:19:48;100191.75;;;22.65;23.72
46506;BME280;32220;49.808;9.968;2023-04-03T10:22:23;100210.97;;;24.05;22.19
46506;BME280;32220;49.808;9.968;2023-04-03T10:25:02;100209.34;;;25.29;19.55
46506;BME280;32220;49.808;9.968;2023-04-03T10:27:44;100223.00;;;26.57;17.99
46506;BME280;32220;49.808;9.968;2023-04-03T10:30:24;100232.91;;;28.12;17.21
46506;BME280;32220;49.808;9.968;2023-04-03T10:33:05;100245.63;;;29.52;15.94
46506;BME280;32220;49.808;9.968;2023-04-03T10:35:44;100242.28;;;29.64;15.29
46506;BME280;32220;49.808;9.968;2023-04-03T10:38:21;100249.34;;;30.41;14.48
46506;BME280;32220;49.808;9.968;2023-04-03T10:40:57;100231.53;;;31.38;14.22
46506;BME280;32220;49.808;9.968;2023-04-03T10:43:33;100272.38;;;30.82;14.11
46506;BME280;32220;49.808;9.968;2023-04-03T10:46:07;100239.03;;;30.72;15.68
46506;BME280;32220;49.808;9.968;2023-04-03T10:48:49;100243.59;;;28.38;15.59
46506;BME280;32220;49.808;9.968;2023-04-03T10:51:25;100215.31;;;26.95;16.25
46506;BME280;32220;49.808;9.968;2023-04-03T10:54:01;100237.28;;;28.38;15.53
46506;BME280;32220;49.808;9.968;2023-04-03T10:56:38;100222.63;;;29.46;15.72
46506;BME280;32220;49.808;9.968;2023-04-03T10:59:18;100231.19;;;30.69;15.00
46506;BME280;32220;49.808;9.968;2023-04-03T11:01:49;100245.00;;;28.57;15.43
46506;BME280;32220;49.808;9.968;2023-04-03T11:04:20;100231.34;;;28.96;16.28
46506;BME280;32220;49.808;9.968;2023-04-03T11:06:56;100211.13;;;29.88;16.74
46506;BME280;32220;49.808;9.968;2023-04-03T11:09:27;100217.72;;;28.65;16.26
46506;BME280;32220;49.808;9.968;2023-04-03T11:12:01;100215.50;;;27.58;17.78
46506;BME280;32220;49.808;9.968;2023-04-03T11:14:32;100201.09;;;26.59;16.40
46506;BME280;32220;49.808;9.968;2023-04-03T11:17:19;100202.31;;;24.74;17.88
46506;BME280;32220;49.808;9.968;2023-04-03T11:19:52;100201.75;;;23.03;18.42
46506;BME280;32220;49.808;9.968;2023-04-03T11:22:27;100166.72;;;22.63;20.39
46506;BME280;32220;49.808;9.968;2023-04-03T11:25:04;100192.38;;;22.97;18.89
46506;BME280;32220;49.808;9.968;2023-04-03T11:27:40;100198.63;;;24.75;18.47
46506;BME280;32220;49.808;9.968;2023-04-03T11:30:16;100165.31;;;27.20;18.43
46506;BME280;32220;49.808;9.968;2023-04-03T11:33:00;100199.25;;;28.75;15.64
46506;BME280;32220;49.808;9.968;2023-04-03T11:35:33;100199.59;;;28.80;15.71
46506;BME280;32220;49.808;9.968;2023-04-03T11:38:03;100179.16;;;28.06;16.33
46506;BME280;32220;49.808;9.968;2023-04-03T11:40:34;100189.47;;;27.23;16.63
46506;BME280;32220;49.808;9.968;2023-04-03T11:43:21;100198.22;;;27.98;16.29
46506;BME280;32220;49.808;9.968;2023-04-03T11:45:56;100184.41;;;29.46;15.08
46506;BME280;32220;49.808;9.968;2023-04-03T11:48:49;100209.16;;;30.56;13.08
46506;BME280;32220;49.808;9.968;2023-04-03T11:51:41;100206.09;;;31.44;12.79
46506;BME280;32220;49.808;9.968;2023-04-03T11:54:44;100204.88;;;32.37;12.65
46506;BME280;32220;49.808;9.968;2023-04-03T12:00:50;100187.94;;;34.13;12.75
46506;BME280;32220;49.808;9.968;2023-04-03T12:07:01;100186.94;;;35.03;11.49
46506;BME280;32220;49.808;9.968;2023-04-03T12:09:56;100174.78;;;34.86;12.59
46506;BME280;32220;49.808;9.968;2023-04-03T12:12:29;100173.25;;;35.71;12.50
46506;BME280;32220;49.808;9.968;2023-04-03T12:15:17;100188.56;;;36.10;10.72
46506;BME280;32220;49.808;9.968;2023-04-03T12:17:48;100166.84;;;36.14;12.00
46506;BME280;32220;49.808;9.968;2023-04-03T12:20:54;100158.75;;;34.63;12.65
46506;BME280;32220;49.808;9.968;2023-04-03T12:23:25;100179.66;;;31.30;12.04
46506;BME280;32220;49.808;9.968;2023-04-03T12:26:00;100157.53;;;31.53;12.69
46506;BME280;32220;49.808;9.968;2023-04-03T12:28:37;100134.59;;;31.60;13.00
46506;BME280;32220;49.808;9.968;2023-04-03T12:31:08;100135.38;;;32.77;13.94
46506;BME280;32220;49.808;9.968;2023-04-03T12:33:51;100141.28;;;33.93;12.53
46506;BME280;32220;49.808;9.968;2023-04-03T12:36:30;100146.69;;;34.13;12.03
46506;BME280;32220;49.808;9.968;2023-04-03T12:39:11;100117.69;;;33.46;12.22
46506;BME280;32220;49.808;9.968;2023-04-03T12:41:49;100148.69;;;32.74;11.97
46506;BME280;32220;49.808;9.968;2023-04-03T12:44:33;100115.91;;;32.66;12.28
46506;BME280;32220;49.808;9.968;2023-04-03T12:47:16;100128.25;;;33.09;12.44
46506;BME280;32220;49.808;9.968;2023-04-03T12:49:49;100116.00;;;33.38;12.71
46506;BME280;32220;49.808;9.968;2023-04-03T12:52:21;100132.91;;;33.29;11.90
46506;BME280;32220;49.808;9.968;2023-04-03T12:54:52;100136.09;;;33.26;12.10
46506;BME280;32220;49.808;9.968;2023-04-03T12:57:24;100138.81;;;33.32;11.62
46506;BME280;32220;49.808;9.968;2023-04-03T12:59:53;100140.94;;;33.24;11.42
46506;BME280;32220;49.808;9.968;2023-04-03T13:02:24;100142.19;;;33.28;11.10
46506;BME280;32220;49.808;9.968;2023-04-03T13:04:56;100127.38;;;33.15;11.45
46506;BME280;32220;49.808;9.968;2023-04-03T13:07:28;100127.38;;;33.15;11.56
46506;BME280;32220;49.808;9.968;2023-04-03T13:09:59;100119.34;;;32.94;12.17
46506;BME280;32220;49.808;9.968;2023-04-03T13:12:29;100120.81;;;32.90;11.60
46506;BME280;32220;49.808;9.968;2023-04-03T13:14:59;100077.97;;;32.96;12.78
46506;BME280;32220;49.808;9.968;2023-04-03T13:17:30;100094.44;;;33.15;12.59
46506;BME280;32220;49.808;9.968;2023-04-03T13:20:12;100097.38;;;32.81;12.75
46506;BME280;32220;49.808;9.968;2023-04-03T13:22:48;100110.72;;;31.54;13.11
46506;BME280;32220;49.808;9.968;2023-04-03T13:25:43;100096.72;;;31.36;12.26
46506;BME280;32220;49.808;9.968;2023-04-03T13:28:13;100101.84;;;31.73;13.48
46506;BME280;32220;49.808;9.968;2023-04-03T13:30:59;100104.38;;;30.98;13.03